createdAt,value
2019-05-11T00:00:23.343Z,1002.17
2019-05-11T00:01:23.285Z,1002.20
2019-05-11T00:02:23.278Z,1002.19
2019-05-11T00:03:23.274Z,1002.17
2019-05-11T00:04:23.274Z,1002.25
2019-05-11T00:05:23.234Z,1002.20
2019-05-11T00:06:23.274Z,1002.18
2019-05-11T00:07:23.213Z,1002.24
2019-05-11T00:08:23.210Z,1002.16
2019-05-11T00:09:23.192Z,1002.20
2019-05-11T00:10:23.748Z,1002.18
2019-05-11T00:11:23.167Z,1002.17
2019-05-11T00:12:23.180Z,1002.17
2019-05-11T00:13:23.150Z,1002.19
2019-05-11T00:14:23.145Z,1002.19
2019-05-11T00:15:23.129Z,1002.24
2019-05-11T00:16:23.189Z,1002.19
2019-05-11T00:17:23.129Z,1002.19
2019-05-11T00:18:30.080Z,1002.23
2019-05-11T00:19:23.082Z,1002.22
2019-05-11T00:20:23.072Z,1002.30
2019-05-11T00:21:23.062Z,1002.32
2019-05-11T00:22:23.063Z,1002.26
2019-05-11T00:23:23.055Z,1002.32
2019-05-11T00:24:23.042Z,1002.34
2019-05-11T00:25:23.080Z,1002.31
2019-05-11T00:26:23.066Z,1002.35
2019-05-11T00:27:23.050Z,1002.36
2019-05-11T00:28:22.990Z,1002.41
2019-05-11T00:29:22.978Z,1002.33
2019-05-11T00:30:22.999Z,1002.28
2019-05-11T00:31:22.955Z,1002.37
2019-05-11T00:32:23.139Z,1002.33
2019-05-11T00:33:22.950Z,1002.29
2019-05-11T00:34:22.923Z,1002.33
2019-05-11T00:35:22.945Z,1002.30
2019-05-11T00:36:22.899Z,1002.27
2019-05-11T00:37:22.898Z,1002.29
2019-05-11T00:38:22.885Z,1002.31
2019-05-11T00:39:22.903Z,1002.29
2019-05-11T00:40:22.866Z,1002.28
2019-05-11T00:41:22.945Z,1002.26
2019-05-11T00:42:22.833Z,1002.34
2019-05-11T00:43:22.823Z,1002.31
2019-05-11T00:44:22.818Z,1002.31
2019-05-11T00:45:22.837Z,1002.31
2019-05-11T00:46:22.789Z,1002.40
2019-05-11T00:47:22.829Z,1002.30
2019-05-11T00:48:22.771Z,1002.35
2019-05-11T00:49:22.758Z,1002.32
2019-05-11T00:50:38.836Z,1002.40
2019-05-11T00:51:23.731Z,1002.37
2019-05-11T00:52:22.726Z,1002.46
2019-05-11T00:53:22.717Z,1002.46
2019-05-11T00:54:22.699Z,1002.43
2019-05-11T00:55:22.695Z,1002.42
2019-05-11T00:56:22.690Z,1002.44
2019-05-11T00:57:22.756Z,1002.49
2019-05-11T00:58:22.657Z,1002.45
2019-05-11T00:59:22.646Z,1002.42
2019-05-11T01:00:22.700Z,1002.47
2019-05-11T01:01:22.631Z,1002.48
2019-05-11T01:02:22.617Z,1002.45
2019-05-11T01:03:22.615Z,1002.46
2019-05-11T01:04:22.607Z,1002.44
2019-05-11T01:05:22.715Z,1002.44
2019-05-11T01:06:22.581Z,1002.38
2019-05-11T01:07:22.621Z,1002.42
2019-05-11T01:08:22.566Z,1002.41
2019-05-11T01:09:22.536Z,1002.34
2019-05-11T01:10:28.973Z,1002.43
2019-05-11T01:11:23.516Z,1002.40
2019-05-11T01:12:22.503Z,1002.39
2019-05-11T01:13:22.584Z,1002.39
2019-05-11T01:14:22.487Z,1002.44
2019-05-11T01:15:22.478Z,1002.43
2019-05-11T01:16:22.515Z,1002.45
2019-05-11T01:17:22.454Z,1002.37
2019-05-11T01:18:22.473Z,1002.39
2019-05-11T01:19:22.446Z,1002.41
2019-05-11T01:20:22.442Z,1002.41
2019-05-11T01:21:22.414Z,1002.38
2019-05-11T01:22:29.379Z,1002.32
2019-05-11T01:23:22.396Z,1002.39
2019-05-11T01:24:22.386Z,1002.42
2019-05-11T01:25:22.371Z,1002.38
2019-05-11T01:26:22.353Z,1002.39
2019-05-11T01:27:22.371Z,1002.36
2019-05-11T01:28:22.343Z,1002.38
2019-05-11T01:29:22.439Z,1002.38
2019-05-11T01:30:22.373Z,1002.34
2019-05-11T01:31:22.314Z,1002.37
2019-05-11T01:32:22.294Z,1002.29
2019-05-11T01:33:22.320Z,1002.33
2019-05-11T01:34:22.307Z,1002.31
2019-05-11T01:35:22.712Z,1002.36
2019-05-11T01:36:22.254Z,1002.37
2019-05-11T01:37:22.241Z,1002.36
2019-05-11T01:38:22.235Z,1002.33
2019-05-11T01:39:22.240Z,1002.33
2019-05-11T01:40:22.204Z,1002.29
2019-05-11T01:41:22.204Z,1002.28
2019-05-11T01:42:22.180Z,1002.29
2019-05-11T01:43:22.171Z,1002.34
2019-05-11T01:44:22.158Z,1002.38
2019-05-11T01:45:22.253Z,1002.33
2019-05-11T01:46:22.188Z,1002.32
2019-05-11T01:47:22.130Z,1002.37
2019-05-11T01:48:22.136Z,1002.35
2019-05-11T01:49:22.104Z,1002.34
2019-05-11T01:50:22.102Z,1002.30
2019-05-11T01:51:22.098Z,1002.31
2019-05-11T01:52:22.157Z,1002.37
2019-05-11T01:53:22.064Z,1002.31
2019-05-11T01:54:29.028Z,1002.28
2019-05-11T01:55:22.039Z,1002.34
2019-05-11T01:56:22.031Z,1002.29
2019-05-11T01:57:22.019Z,1002.28
2019-05-11T01:58:22.060Z,1002.29
2019-05-11T01:59:22.004Z,1002.34
2019-05-11T02:00:22.027Z,1002.36
2019-05-11T02:01:21.979Z,1002.33
2019-05-11T02:02:21.965Z,1002.34
2019-05-11T02:03:21.957Z,1002.33
2019-05-11T02:04:22.039Z,1002.39
2019-05-11T02:05:21.932Z,1002.33
2019-05-11T02:06:21.939Z,1002.30
2019-05-11T02:07:21.921Z,1002.36
2019-05-11T02:08:21.912Z,1002.35
2019-05-11T02:09:21.894Z,1002.36
2019-05-11T02:10:21.926Z,1002.29
2019-05-11T02:11:21.871Z,1002.34
2019-05-11T02:12:21.857Z,1002.32
2019-05-11T02:13:21.927Z,1002.29
2019-05-11T02:14:21.852Z,1002.36
2019-05-11T02:15:21.827Z,1002.36
2019-05-11T02:16:21.821Z,1002.37
2019-05-11T02:17:21.804Z,1002.35
2019-05-11T02:18:21.858Z,1002.40
2019-05-11T02:19:21.793Z,1002.39
2019-05-11T02:20:21.767Z,1002.38
2019-05-11T02:21:21.762Z,1002.37
2019-05-11T02:22:21.748Z,1002.39
2019-05-11T02:23:21.739Z,1002.45
2019-05-11T02:24:21.779Z,1002.46
2019-05-11T02:25:21.762Z,1002.52
2019-05-11T02:26:28.683Z,1002.52
2019-05-11T02:27:21.690Z,1002.45
2019-05-11T02:28:21.689Z,1002.46
2019-05-11T02:29:21.671Z,1002.51
2019-05-11T02:30:21.665Z,1002.50
2019-05-11T02:31:21.674Z,1002.50
2019-05-11T02:32:21.647Z,1002.50
2019-05-11T02:33:21.646Z,1002.44
2019-05-11T02:34:21.679Z,1002.42
2019-05-11T02:35:21.615Z,1002.44
2019-05-11T02:36:21.635Z,1002.47
2019-05-11T02:37:21.630Z,1002.48
2019-05-11T02:38:21.580Z,1002.46
2019-05-11T02:39:21.581Z,1002.48
2019-05-11T02:40:21.570Z,1002.48
2019-05-11T02:41:35.623Z,1002.48
2019-05-11T02:42:22.589Z,1002.52
2019-05-11T02:43:21.577Z,1002.52
2019-05-11T02:44:21.515Z,1002.57
2019-05-11T02:45:21.514Z,1002.50
2019-05-11T02:46:21.489Z,1002.51
2019-05-11T02:47:21.484Z,1002.53
2019-05-11T02:48:21.507Z,1002.51
2019-05-11T02:49:21.512Z,1002.56
2019-05-11T02:50:21.448Z,1002.55
2019-05-11T02:51:21.438Z,1002.59
2019-05-11T02:52:21.425Z,1002.51
2019-05-11T02:53:21.413Z,1002.56
2019-05-11T02:54:21.453Z,1002.52
2019-05-11T02:55:21.562Z,1002.58
2019-05-11T02:56:21.407Z,1002.56
2019-05-11T02:57:21.371Z,1002.64
2019-05-11T02:58:28.339Z,1002.66
2019-05-11T02:59:21.352Z,1002.64
2019-05-11T03:00:21.426Z,1002.67
2019-05-11T03:01:21.331Z,1002.69
2019-05-11T03:02:21.339Z,1002.70
2019-05-11T03:03:21.321Z,1002.63
2019-05-11T03:04:21.294Z,1002.65
2019-05-11T03:05:21.283Z,1002.67
2019-05-11T03:06:21.297Z,1002.74
2019-05-11T03:07:21.264Z,1002.71
2019-05-11T03:08:21.250Z,1002.74
2019-05-11T03:09:21.238Z,1002.69
2019-05-11T03:10:21.264Z,1002.79
2019-05-11T03:11:21.222Z,1002.77
2019-05-11T03:12:21.216Z,1002.79
2019-05-11T03:13:21.267Z,1002.79
2019-05-11T03:14:21.194Z,1002.79
2019-05-11T03:15:21.176Z,1002.71
2019-05-11T03:16:21.252Z,1002.73
2019-05-11T03:17:21.214Z,1002.70
2019-05-11T03:18:21.144Z,1002.71
2019-05-11T03:19:21.134Z,1002.72
2019-05-11T03:20:21.124Z,1002.73
2019-05-11T03:21:21.166Z,1002.70
2019-05-11T03:22:21.102Z,1002.73
2019-05-11T03:23:21.125Z,1002.78
2019-05-11T03:24:24.014Z,1002.75
2019-05-11T03:25:21.067Z,1002.76
2019-05-11T03:26:21.075Z,1002.69
2019-05-11T03:27:21.054Z,1002.75
2019-05-11T03:28:21.148Z,1002.74
2019-05-11T03:29:21.066Z,1002.74
2019-05-11T03:30:28.504Z,1002.72
2019-05-11T03:31:21.008Z,1002.71
2019-05-11T03:32:20.996Z,1002.69
2019-05-11T03:33:20.989Z,1002.72
2019-05-11T03:34:20.977Z,1002.75
2019-05-11T03:35:21.040Z,1002.76
2019-05-11T03:36:20.945Z,1002.75
2019-05-11T03:37:20.931Z,1002.78
2019-05-11T03:38:20.929Z,1002.85
2019-05-11T03:39:20.915Z,1002.83
2019-05-11T03:40:20.936Z,1002.83
2019-05-11T03:41:20.910Z,1002.79
2019-05-11T03:42:20.882Z,1002.77
2019-05-11T03:43:20.938Z,1002.79
2019-05-11T03:44:20.873Z,1002.84
2019-05-11T03:45:20.849Z,1002.80
2019-05-11T03:46:20.846Z,1002.76
2019-05-11T03:47:20.830Z,1002.74
2019-05-11T03:48:20.852Z,1002.76
2019-05-11T03:49:20.808Z,1002.66
2019-05-11T03:50:20.809Z,1002.75
2019-05-11T03:51:20.800Z,1002.72
2019-05-11T03:52:20.771Z,1002.78
2019-05-11T03:53:20.765Z,1002.80
2019-05-11T03:54:20.798Z,1002.80
2019-05-11T03:55:20.815Z,1002.82
2019-05-11T03:56:20.757Z,1002.76
2019-05-11T03:57:20.726Z,1002.74
2019-05-11T03:58:25.434Z,1002.80
2019-05-11T03:59:21.699Z,1002.87
2019-05-11T04:00:20.755Z,1002.92
2019-05-11T04:01:20.675Z,1002.98
2019-05-11T04:02:27.817Z,1002.98
2019-05-11T04:03:20.654Z,1003.03
2019-05-11T04:04:20.641Z,1003.08
2019-05-11T04:05:20.714Z,1003.10
2019-05-11T04:06:20.624Z,1003.09
2019-05-11T04:07:20.662Z,1003.06
2019-05-11T04:08:20.603Z,1003.09
2019-05-11T04:09:20.735Z,1003.09
2019-05-11T04:10:24.811Z,1003.15
2019-05-11T04:11:20.576Z,1003.11
2019-05-11T04:12:33.968Z,1003.12
2019-05-11T04:13:21.658Z,1003.13
2019-05-11T04:14:20.538Z,1003.05
2019-05-11T04:15:20.540Z,1003.02
2019-05-11T04:16:20.596Z,1003.11
2019-05-11T04:17:20.509Z,1003.07
2019-05-11T04:18:20.503Z,1003.10
2019-05-11T04:19:20.493Z,1003.20
2019-05-11T04:20:20.552Z,1003.10
2019-05-11T04:21:20.512Z,1003.24
2019-05-11T04:22:20.449Z,1003.21
2019-05-11T04:23:20.440Z,1003.13
2019-05-11T04:24:20.442Z,1003.18
2019-05-11T04:25:20.424Z,1003.28
2019-05-11T04:26:20.409Z,1003.15
2019-05-11T04:27:20.439Z,1003.17
2019-05-11T04:28:20.395Z,1003.15
2019-05-11T04:29:20.424Z,1003.09
2019-05-11T04:30:20.379Z,1003.08
2019-05-11T04:31:20.350Z,1003.03
2019-05-11T04:32:20.340Z,1003.10
2019-05-11T04:33:20.363Z,1003.07
2019-05-11T04:34:29.852Z,1003.10
2019-05-11T04:35:20.327Z,1003.08
2019-05-11T04:36:20.302Z,1003.12
2019-05-11T04:37:20.284Z,1003.13
2019-05-11T04:38:20.302Z,1003.07
2019-05-11T04:39:20.314Z,1003.01
2019-05-11T04:40:20.333Z,1003.03
2019-05-11T04:41:20.293Z,1003.05
2019-05-11T04:42:20.258Z,1003.05
2019-05-11T04:43:20.220Z,1003.13
2019-05-11T04:44:20.220Z,1003.05
2019-05-11T04:45:20.240Z,1003.12
2019-05-11T04:46:20.197Z,1003.09
2019-05-11T04:47:20.180Z,1003.05
2019-05-11T04:48:20.191Z,1003.02
2019-05-11T04:49:20.176Z,1002.97
2019-05-11T04:50:20.143Z,1002.94
2019-05-11T04:51:20.237Z,1002.95
2019-05-11T04:52:20.137Z,1002.89
2019-05-11T04:53:20.118Z,1002.92
2019-05-11T04:54:20.102Z,1002.90
2019-05-11T04:55:20.156Z,1003.02
2019-05-11T04:56:20.105Z,1003.05
2019-05-11T04:57:20.101Z,1003.10
2019-05-11T04:58:20.081Z,1003.12
2019-05-11T04:59:20.103Z,1003.12
2019-05-11T05:00:20.040Z,1003.12
2019-05-11T05:01:20.027Z,1003.12
2019-05-11T05:02:20.038Z,1003.17
2019-05-11T05:03:20.004Z,1003.12
2019-05-11T05:04:19.992Z,1003.15
2019-05-11T05:05:20.073Z,1003.13
2019-05-11T05:06:27.859Z,1003.13
2019-05-11T05:07:19.958Z,1003.12
2019-05-11T05:08:21.052Z,1003.15
2019-05-11T05:09:21.004Z,1003.17
2019-05-11T05:10:22.231Z,1003.19
2019-05-11T05:11:19.922Z,1003.18
2019-05-11T05:12:19.907Z,1003.15
2019-05-11T05:13:23.249Z,1003.10
2019-05-11T05:14:20.928Z,1003.20
2019-05-11T05:15:19.868Z,1003.22
2019-05-11T05:16:19.858Z,1003.22
2019-05-11T05:17:19.918Z,1003.15
2019-05-11T05:18:19.842Z,1003.09
2019-05-11T05:19:19.886Z,1003.12
2019-05-11T05:20:19.820Z,1003.10
2019-05-11T05:21:19.812Z,1002.98
2019-05-11T05:22:19.855Z,1003.08
2019-05-11T05:23:19.786Z,1003.04
2019-05-11T05:24:19.776Z,1003.08
2019-05-11T05:25:19.779Z,1003.06
2019-05-11T05:26:19.818Z,1003.07
2019-05-11T05:27:19.742Z,1003.01
2019-05-11T05:28:19.809Z,1003.07
2019-05-11T05:29:19.726Z,1003.01
2019-05-11T05:30:19.723Z,1002.98
2019-05-11T05:31:19.753Z,1003.01
2019-05-11T05:32:19.771Z,1002.99
2019-05-11T05:33:19.700Z,1003.00
2019-05-11T05:34:19.747Z,1003.08
2019-05-11T05:35:19.689Z,1003.03
2019-05-11T05:36:19.668Z,1003.04
2019-05-11T05:37:19.636Z,1003.04
2019-05-11T05:38:26.604Z,1003.02
2019-05-11T05:39:19.620Z,1003.03
2019-05-11T05:40:19.599Z,1003.00
2019-05-11T05:41:19.810Z,1003.02
2019-05-11T05:42:19.573Z,1002.98
2019-05-11T05:43:27.950Z,1003.02
2019-05-11T05:44:20.553Z,1003.00
2019-05-11T05:45:19.542Z,1002.92
2019-05-11T05:46:19.533Z,1002.83
2019-05-11T05:47:19.540Z,1002.91
2019-05-11T05:48:19.589Z,1002.93
2019-05-11T05:49:19.502Z,1002.93
2019-05-11T05:50:19.492Z,1002.97
2019-05-11T05:51:19.526Z,1002.92
2019-05-11T05:52:19.500Z,1002.90
2019-05-11T05:53:19.497Z,1002.88
2019-05-11T05:54:19.448Z,1002.87
2019-05-11T05:55:20.379Z,1002.83
2019-05-11T05:56:19.427Z,1002.85
2019-05-11T05:57:19.453Z,1002.83
2019-05-11T05:58:19.404Z,1002.85
2019-05-11T05:59:19.413Z,1002.88
2019-05-11T06:00:19.397Z,1002.87
2019-05-11T06:01:19.400Z,1002.84
2019-05-11T06:02:19.358Z,1002.81
2019-05-11T06:03:19.349Z,1002.83
2019-05-11T06:04:19.415Z,1002.81
2019-05-11T06:05:19.333Z,1002.83
2019-05-11T06:06:19.314Z,1002.95
2019-05-11T06:07:19.303Z,1002.88
2019-05-11T06:08:19.303Z,1002.81
2019-05-11T06:09:19.291Z,1002.81
2019-05-11T06:10:26.418Z,1002.79
2019-05-11T06:11:19.260Z,1002.77
2019-05-11T06:12:19.247Z,1002.74
2019-05-11T06:13:19.243Z,1002.76
2019-05-11T06:14:19.232Z,1002.80
2019-05-11T06:15:19.919Z,1002.75
2019-05-11T06:16:19.218Z,1002.82
2019-05-11T06:17:19.201Z,1002.76
2019-05-11T06:18:19.190Z,1002.73
2019-05-11T06:19:19.179Z,1002.78
2019-05-11T06:20:19.177Z,1002.72
2019-05-11T06:21:19.231Z,1002.68
2019-05-11T06:22:19.141Z,1002.73
2019-05-11T06:23:19.136Z,1002.72
2019-05-11T06:24:19.205Z,1002.65
2019-05-11T06:25:19.114Z,1002.68
2019-05-11T06:26:19.100Z,1002.69
2019-05-11T06:27:19.115Z,1002.66
2019-05-11T06:28:19.082Z,1002.66
2019-05-11T06:29:21.655Z,1002.69
2019-05-11T06:30:19.059Z,1002.65
2019-05-11T06:31:19.044Z,1002.70
2019-05-11T06:32:19.050Z,1002.65
2019-05-11T06:33:19.076Z,1002.63
2019-05-11T06:34:19.020Z,1002.60
2019-05-11T06:35:22.411Z,1002.68
2019-05-11T06:36:19.038Z,1002.58
2019-05-11T06:37:19.026Z,1002.60
2019-05-11T06:38:18.980Z,1002.59
2019-05-11T06:39:19.021Z,1002.58
2019-05-11T06:40:18.953Z,1002.53
2019-05-11T06:41:18.933Z,1002.58
2019-05-11T06:42:25.916Z,1002.55
2019-05-11T06:43:18.922Z,1002.59
2019-05-11T06:44:18.924Z,1002.59
2019-05-11T06:45:18.897Z,1002.57
2019-05-11T06:46:18.889Z,1002.53
2019-05-11T06:47:18.875Z,1002.48
2019-05-11T06:48:18.871Z,1002.50
2019-05-11T06:49:18.951Z,1002.53
2019-05-11T06:50:18.845Z,1002.51
2019-05-11T06:51:18.835Z,1002.51
2019-05-11T06:52:18.887Z,1002.54
2019-05-11T06:53:18.808Z,1002.53
2019-05-11T06:54:18.803Z,1002.59
2019-05-11T06:55:19.427Z,1002.60
2019-05-11T06:56:18.793Z,1002.56
2019-05-11T06:57:18.820Z,1002.51
2019-05-11T06:58:18.759Z,1002.54
2019-05-11T06:59:18.742Z,1002.52
2019-05-11T07:00:18.792Z,1002.47
2019-05-11T07:01:18.726Z,1002.46
2019-05-11T07:02:18.712Z,1002.34
2019-05-11T07:03:18.760Z,1002.52
2019-05-11T07:04:18.688Z,1002.38
2019-05-11T07:05:18.683Z,1002.41
2019-05-11T07:06:18.679Z,1002.42
2019-05-11T07:07:18.651Z,1002.36
2019-05-11T07:08:18.687Z,1002.42
2019-05-11T07:09:18.653Z,1002.35
2019-05-11T07:10:18.649Z,1002.38
2019-05-11T07:11:18.665Z,1002.39
2019-05-11T07:12:18.667Z,1002.44
2019-05-11T07:13:18.588Z,1002.44
2019-05-11T07:14:25.973Z,1002.41
2019-05-11T07:15:18.562Z,1002.40
2019-05-11T07:16:18.559Z,1002.42
2019-05-11T07:17:18.598Z,1002.45
2019-05-11T07:18:18.545Z,1002.39
2019-05-11T07:19:18.527Z,1002.41
2019-05-11T07:20:18.513Z,1002.40
2019-05-11T07:21:18.531Z,1002.38
2019-05-11T07:22:18.491Z,1002.40
2019-05-11T07:23:18.499Z,1002.32
2019-05-11T07:24:18.518Z,1002.33
2019-05-11T07:25:18.456Z,1002.22
2019-05-11T07:26:18.450Z,1002.27
2019-05-11T07:27:18.442Z,1002.25
2019-05-11T07:28:18.434Z,1002.34
2019-05-11T07:29:18.539Z,1002.29
2019-05-11T07:30:18.411Z,1002.26
2019-05-11T07:31:18.400Z,1002.30
2019-05-11T07:32:25.029Z,1002.25
2019-05-11T07:33:19.370Z,1002.32
2019-05-11T07:34:18.564Z,1002.26
2019-05-11T07:35:18.892Z,1002.23
2019-05-11T07:36:18.334Z,1002.25
2019-05-11T07:37:18.613Z,1002.28
2019-05-11T07:38:18.558Z,1002.26
2019-05-11T07:39:18.756Z,1002.26
2019-05-11T07:40:18.940Z,1002.23
2019-05-11T07:41:18.340Z,1002.21
2019-05-11T07:42:18.275Z,1002.22
2019-05-11T07:43:18.942Z,1002.19
2019-05-11T07:44:19.113Z,1002.24
2019-05-11T07:45:19.250Z,1002.18
2019-05-11T07:46:25.977Z,1002.13
2019-05-11T07:47:18.798Z,1002.04
2019-05-11T07:48:18.769Z,1002.04
2019-05-11T07:49:18.198Z,1002.06
2019-05-11T07:50:18.379Z,1002.13
2019-05-11T07:51:18.404Z,1002.16
2019-05-11T07:52:18.322Z,1002.11
2019-05-11T07:53:18.711Z,1002.10
2019-05-11T07:54:18.833Z,1002.09
2019-05-11T07:55:19.156Z,1002.03
2019-05-11T07:56:18.915Z,1001.97
2019-05-11T07:57:18.730Z,1002.05
2019-05-11T07:58:20.255Z,1002.04
2019-05-11T07:59:18.454Z,1002.04
2019-05-11T08:00:18.732Z,1002.07
2019-05-11T08:01:18.863Z,1002.12
2019-05-11T08:02:18.086Z,1002.05
2019-05-11T08:03:18.231Z,1002.04
2019-05-11T08:04:18.454Z,1002.03
2019-05-11T08:05:18.191Z,1002.02
2019-05-11T08:06:18.450Z,1001.94
2019-05-11T08:07:18.249Z,1001.86
2019-05-11T08:08:18.215Z,1001.85
2019-05-11T08:09:18.797Z,1001.86
2019-05-11T08:10:18.692Z,1001.85
2019-05-11T08:11:18.377Z,1001.80
2019-05-11T08:12:19.209Z,1001.85
2019-05-11T08:13:17.984Z,1001.88
2019-05-11T08:14:18.400Z,1001.92
2019-05-11T08:15:18.586Z,1001.94
2019-05-11T08:16:18.696Z,1001.91
2019-05-11T08:17:18.698Z,1001.95
2019-05-11T08:18:28.246Z,1002.04
2019-05-11T08:19:18.631Z,1002.02
2019-05-11T08:20:18.647Z,1002.08
2019-05-11T08:21:18.068Z,1002.13
2019-05-11T08:22:22.538Z,1002.16
2019-05-11T08:23:18.830Z,1002.17
2019-05-11T08:24:18.154Z,1002.23
2019-05-11T08:25:18.346Z,1002.07
2019-05-11T08:26:19.105Z,1002.09
2019-05-11T08:27:18.704Z,1002.01
2019-05-11T08:28:18.451Z,1002.04
2019-05-11T08:29:18.559Z,1002.00
2019-05-11T08:30:18.771Z,1001.93
2019-05-11T08:31:18.736Z,1001.95
2019-05-11T08:32:18.369Z,1001.89
2019-05-11T08:33:18.302Z,1001.84
2019-05-11T08:34:18.110Z,1001.83
2019-05-11T08:35:17.969Z,1001.81
2019-05-11T08:36:18.544Z,1001.82
2019-05-11T08:37:18.902Z,1001.85
2019-05-11T08:38:18.158Z,1001.82
2019-05-11T08:39:18.334Z,1001.85
2019-05-11T08:40:18.416Z,1001.87
2019-05-11T08:41:18.407Z,1001.84
2019-05-11T08:42:18.039Z,1001.82
2019-05-11T08:43:18.050Z,1001.76
2019-05-11T08:44:18.260Z,1001.84
2019-05-11T08:45:24.208Z,1001.74
2019-05-11T08:46:18.769Z,1001.68
2019-05-11T08:47:17.883Z,1001.62
2019-05-11T08:48:18.748Z,1001.59
2019-05-11T08:49:19.000Z,1001.58
2019-05-11T08:50:24.575Z,1001.58
2019-05-11T08:51:18.682Z,1001.60
2019-05-11T08:52:18.657Z,1001.68
2019-05-11T08:53:17.953Z,1001.65
2019-05-11T08:54:18.311Z,1001.64
2019-05-11T08:55:18.957Z,1001.64
2019-05-11T08:56:18.859Z,1001.60
2019-05-11T08:57:18.049Z,1001.67
2019-05-11T08:58:19.344Z,1001.63
2019-05-11T08:59:18.704Z,1001.56
2019-05-11T09:00:18.017Z,1001.57
2019-05-11T09:01:18.310Z,1001.58
2019-05-11T09:02:18.632Z,1001.58
2019-05-11T09:03:17.964Z,1001.46
2019-05-11T09:04:18.246Z,1001.33
2019-05-11T09:05:18.720Z,1001.17
2019-05-11T09:06:18.050Z,1001.19
2019-05-11T09:07:18.430Z,1001.27
2019-05-11T09:08:18.790Z,1001.37
2019-05-11T09:09:18.154Z,1001.44
2019-05-11T09:10:18.570Z,1001.46
2019-05-11T09:11:19.004Z,1001.47
2019-05-11T09:12:18.285Z,1001.42
2019-05-11T09:13:18.533Z,1001.45
2019-05-11T09:14:18.849Z,1001.38
2019-05-11T09:15:32.430Z,1001.32
2019-05-11T09:16:19.053Z,1001.36
2019-05-11T09:17:18.227Z,1001.39
2019-05-11T09:18:18.802Z,1001.33
2019-05-11T09:19:17.889Z,1001.35
2019-05-11T09:20:18.039Z,1001.42
2019-05-11T09:21:19.097Z,1001.46
2019-05-11T09:22:24.171Z,1001.43
2019-05-11T09:23:32.920Z,1001.33
2019-05-11T09:24:18.918Z,1001.34
2019-05-11T09:25:18.243Z,1001.37
2019-05-11T09:26:18.137Z,1001.39
2019-05-11T09:27:18.385Z,1001.46
2019-05-11T09:28:17.988Z,1001.40
2019-05-11T09:29:17.937Z,1001.41
2019-05-11T09:30:18.403Z,1001.33
2019-05-11T09:31:18.878Z,1001.33
2019-05-11T09:32:17.930Z,1001.32
2019-05-11T09:33:20.472Z,1001.20
2019-05-11T09:34:18.064Z,1001.21
2019-05-11T09:35:18.873Z,1001.15
2019-05-11T09:36:18.095Z,1001.21
2019-05-11T09:37:18.371Z,1001.18
2019-05-11T09:38:18.545Z,1001.07
2019-05-11T09:39:17.729Z,1001.06
2019-05-11T09:40:18.276Z,1001.05
2019-05-11T09:41:18.062Z,1001.01
2019-05-11T09:42:17.951Z,1001.03
2019-05-11T09:43:17.851Z,1000.93
2019-05-11T09:44:18.302Z,1000.92
2019-05-11T09:45:18.701Z,1000.86
2019-05-11T09:46:18.843Z,1000.93
2019-05-11T09:47:18.949Z,1000.90
2019-05-11T09:48:17.965Z,1000.82
2019-05-11T09:49:18.531Z,1000.79
2019-05-11T09:50:17.906Z,1000.83
2019-05-11T09:51:18.488Z,1000.88
2019-05-11T09:52:18.363Z,1000.95
2019-05-11T09:53:17.720Z,1000.91
2019-05-11T09:54:23.818Z,1000.92
2019-05-11T09:55:19.016Z,1000.96
2019-05-11T09:56:18.357Z,1000.92
2019-05-11T09:57:18.473Z,1000.95
2019-05-11T09:58:19.660Z,1000.92
2019-05-11T09:59:17.906Z,1000.84
2019-05-11T10:00:17.939Z,1000.91
2019-05-11T10:01:18.257Z,1000.86
2019-05-11T10:02:20.404Z,1000.91
2019-05-11T10:03:18.800Z,1000.87
2019-05-11T10:04:18.112Z,1000.95
2019-05-11T10:05:18.869Z,1000.93
2019-05-11T10:06:18.722Z,1000.82
2019-05-11T10:07:18.086Z,1000.88
2019-05-11T10:08:18.295Z,1000.78
2019-05-11T10:09:18.608Z,1000.67
2019-05-11T10:10:18.684Z,1000.77
2019-05-11T10:11:18.711Z,1000.65
2019-05-11T10:12:18.143Z,1000.78
2019-05-11T10:13:18.568Z,1000.64
2019-05-11T10:14:18.765Z,1000.62
2019-05-11T10:15:18.677Z,1000.61
2019-05-11T10:16:17.917Z,1000.62
2019-05-11T10:17:18.209Z,1000.59
2019-05-11T10:18:18.611Z,1000.60
2019-05-11T10:19:17.939Z,1000.64
2019-05-11T10:20:18.172Z,1000.63
2019-05-11T10:21:18.566Z,1000.59
2019-05-11T10:22:18.575Z,1000.63
2019-05-11T10:23:18.591Z,1000.66
2019-05-11T10:24:17.807Z,1000.63
2019-05-11T10:25:18.178Z,1000.65
2019-05-11T10:26:23.471Z,1000.61
2019-05-11T10:27:18.704Z,1000.64
2019-05-11T10:28:17.919Z,1000.73
2019-05-11T10:29:18.266Z,1000.72
2019-05-11T10:30:18.561Z,1000.60
2019-05-11T10:31:18.062Z,1000.69
2019-05-11T10:32:18.283Z,1000.62
2019-05-11T10:33:18.627Z,1000.57
2019-05-11T10:34:17.958Z,1000.49
2019-05-11T10:35:18.376Z,1000.43
2019-05-11T10:36:18.753Z,1000.38
2019-05-11T10:37:17.689Z,1000.33
2019-05-11T10:38:18.099Z,1000.31
2019-05-11T10:39:18.461Z,1000.33
2019-05-11T10:40:18.656Z,1000.34
2019-05-11T10:41:18.166Z,1000.44
2019-05-11T10:42:18.036Z,1000.34
2019-05-11T10:43:18.339Z,1000.27
2019-05-11T10:44:18.598Z,1000.29
2019-05-11T10:45:17.974Z,1000.24
2019-05-11T10:46:22.501Z,1000.24
2019-05-11T10:47:18.470Z,1000.24
2019-05-11T10:48:17.767Z,1000.24
2019-05-11T10:49:18.313Z,1000.25
2019-05-11T10:50:18.556Z,1000.20
2019-05-11T10:51:18.409Z,1000.22
2019-05-11T10:52:18.020Z,1000.21
2019-05-11T10:53:18.341Z,1000.17
2019-05-11T10:54:18.486Z,1000.08
2019-05-11T10:55:18.974Z,1000.05
2019-05-11T10:56:17.837Z,1000.14
2019-05-11T10:57:16.151Z,1000.06
2019-05-11T10:58:24.644Z,1000.07
2019-05-11T10:59:18.300Z,1000.05
2019-05-11T11:00:17.800Z,1000.08
2019-05-11T11:01:18.135Z,1000.09
2019-05-11T11:02:18.355Z,1000.06
2019-05-11T11:03:17.907Z,999.99
2019-05-11T11:04:18.179Z,1000.05
2019-05-11T11:05:18.527Z,1000.05
2019-05-11T11:06:16.049Z,1000.02
2019-05-11T11:07:17.284Z,1000.01
2019-05-11T11:08:18.373Z,999.99
2019-05-11T11:09:17.774Z,999.98
2019-05-11T11:10:18.179Z,999.94
2019-05-11T11:11:18.272Z,1000.02
2019-05-11T11:12:15.988Z,999.99
2019-05-11T11:13:16.026Z,999.96
2019-05-11T11:14:18.113Z,999.96
2019-05-11T11:15:18.157Z,999.94
2019-05-11T11:16:33.726Z,999.99
2019-05-11T11:17:19.039Z,999.89
2019-05-11T11:18:15.918Z,999.88
2019-05-11T11:19:18.179Z,999.95
2019-05-11T11:20:15.941Z,999.90
2019-05-11T11:21:20.106Z,999.80
2019-05-11T11:22:35.810Z,999.82
2019-05-11T11:23:17.781Z,999.78
2019-05-11T11:24:17.965Z,999.73
2019-05-11T11:25:17.748Z,999.67
2019-05-11T11:26:18.213Z,999.64
2019-05-11T11:27:15.839Z,999.63
2019-05-11T11:28:17.540Z,999.51
2019-05-11T11:29:17.969Z,999.61
2019-05-11T11:30:23.233Z,999.47
2019-05-11T11:31:18.376Z,999.51
2019-05-11T11:32:15.767Z,999.58
2019-05-11T11:33:15.757Z,999.47
2019-05-11T11:34:15.752Z,999.48
2019-05-11T11:35:15.743Z,999.45
2019-05-11T11:36:17.821Z,999.50
2019-05-11T11:37:17.531Z,999.41
2019-05-11T11:38:17.870Z,999.31
2019-05-11T11:39:15.697Z,999.36
2019-05-11T11:40:17.771Z,999.28
2019-05-11T11:41:17.871Z,999.31
2019-05-11T11:42:17.765Z,999.22
2019-05-11T11:43:17.897Z,999.26
2019-05-11T11:44:18.309Z,999.11
2019-05-11T11:45:18.111Z,998.99
2019-05-11T11:46:15.612Z,999.10
2019-05-11T11:47:20.763Z,998.95
2019-05-11T11:48:18.703Z,999.15
2019-05-11T11:49:15.584Z,998.97
2019-05-11T11:50:17.635Z,998.99
2019-05-11T11:51:15.617Z,999.01
2019-05-11T11:52:15.547Z,999.10
2019-05-11T11:53:15.570Z,998.93
2019-05-11T11:54:17.952Z,998.86
2019-05-11T11:55:15.532Z,998.83
2019-05-11T11:56:15.510Z,998.74
2019-05-11T11:57:15.495Z,998.70
2019-05-11T11:58:15.524Z,998.72
2019-05-11T11:59:17.668Z,998.62
2019-05-11T12:00:15.468Z,998.66
2019-05-11T12:01:15.452Z,998.69
2019-05-11T12:02:22.939Z,998.66
2019-05-11T12:03:15.427Z,998.74
2019-05-11T12:04:15.417Z,998.72
2019-05-11T12:05:17.534Z,998.83
2019-05-11T12:06:15.403Z,998.90
2019-05-11T12:07:17.765Z,998.88